sensor_id;sensor_type;location;lat;lon;timestamp;P1;durP1;ratioP1;P2;durP2;ratioP2
76117;SDS011;64851;50.232;20.364;2023-03-01T00:02:05;41.30;;;16.50;;
76117;SDS011;64851;50.232;20.364;2023-03-01T00:04:53;35.30;;;14.80;;
76117;SDS011;64851;50.232;20.364;2023-03-01T00:07:28;42.80;;;15.30;;
76117;SDS011;64851;50.232;20.364;2023-03-01T00:10:15;42.20;;;16.50;;
76117;SDS011;64851;50.232;20.364;2023-03-01T00:12:57;36.10;;;14.60;;
76117;SDS011;64851;50.232;20.364;2023-03-01T00:15:45;34.50;;;14.50;;
76117;SDS011;64851;50.232;20.364;2023-03-01T00:18:20;32.80;;;14.80;;
76117;SDS011;64851;50.232;20.364;2023-03-01T00:21:08;42.30;;;18.30;;
76117;SDS011;64851;50.232;20.364;2023-03-01T00:23:44;43.30;;;17.90;;
76117;SDS011;64851;50.232;20.364;2023-03-01T00:26:26;42.10;;;18.70;;
76117;SDS011;64851;50.232;20.364;2023-03-01T00:29:09;36.20;;;15.40;;
76117;SDS011;64851;50.232;20.364;2023-03-01T00:31:47;35.60;;;16.10;;
76117;SDS011;64851;50.232;20.364;2023-03-01T00:34:35;39.70;;;15.70;;
76117;SDS011;64851;50.232;20.364;2023-03-01T00:37:11;47.30;;;20.30;;
76117;SDS011;64851;50.232;20.364;2023-03-01T00:40:06;38.60;;;16.70;;
76117;SDS011;64851;50.232;20.364;2023-03-01T00:43:03;46.00;;;18.10;;
76117;SDS011;64851;50.232;20.364;2023-03-01T00:46:00;42.40;;;15.80;;
76117;SDS011;64851;50.232;20.364;2023-03-01T00:48:55;42.00;;;16.10;;
76117;SDS011;64851;50.232;20.364;2023-03-01T00:51:51;36.40;;;14.50;;
76117;SDS011;64851;50.232;20.364;2023-03-01T00:54:26;38.80;;;14.90;;
76117;SDS011;64851;50.232;20.364;2023-03-01T00:57:21;36.10;;;15.50;;
76117;SDS011;64851;50.232;20.364;2023-03-01T01:00:16;40.20;;;17.10;;
76117;SDS011;64851;50.232;20.364;2023-03-01T01:02:52;40.90;;;17.40;;
76117;SDS011;64851;50.232;20.364;2023-03-01T01:05:40;54.10;;;21.40;;
76117;SDS011;64851;50.232;20.364;2023-03-01T01:08:15;67.90;;;23.40;;
76117;SDS011;64851;50.232;20.364;2023-03-01T01:11:03;74.00;;;28.40;;
76117;SDS011;64851;50.232;20.364;2023-03-01T01:13:39;46.60;;;20.10;;
76117;SDS011;64851;50.232;20.364;2023-03-01T01:16:33;55.70;;;21.80;;
76117;SDS011;64851;50.232;20.364;2023-03-01T01:19:28;46.10;;;19.90;;
76117;SDS011;64851;50.232;20.364;2023-03-01T01:22:03;44.70;;;20.50;;
76117;SDS011;64851;50.232;20.364;2023-03-01T01:24:51;41.30;;;17.80;;
76117;SDS011;64851;50.232;20.364;2023-03-01T01:27:26;43.90;;;17.50;;
76117;SDS011;64851;50.232;20.364;2023-03-01T01:30:13;48.00;;;19.50;;
76117;SDS011;64851;50.232;20.364;2023-03-01T01:32:55;39.00;;;16.40;;
76117;SDS011;64851;50.232;20.364;2023-03-01T01:35:44;46.40;;;18.50;;
76117;SDS011;64851;50.232;20.364;2023-03-01T01:38:20;48.30;;;19.00;;
76117;SDS011;64851;50.232;20.364;2023-03-01T01:41:07;45.70;;;18.30;;
76117;SDS011;64851;50.232;20.364;2023-03-01T01:43:47;65.30;;;25.20;;
76117;SDS011;64851;50.232;20.364;2023-03-01T01:46:39;58.20;;;25.30;;
76117;SDS011;64851;50.232;20.364;2023-03-01T01:49:35;51.80;;;21.00;;
76117;SDS011;64851;50.232;20.364;2023-03-01T01:52:25;38.70;;;16.60;;
76117;SDS011;64851;50.232;20.364;2023-03-01T01:55:03;35.10;;;16.10;;
76117;SDS011;64851;50.232;20.364;2023-03-01T01:57:55;40.40;;;19.20;;
76117;SDS011;64851;50.232;20.364;2023-03-01T02:00:52;37.80;;;14.90;;
76117;SDS011;64851;50.232;20.364;2023-03-01T02:03:29;48.90;;;19.00;;
76117;SDS011;64851;50.232;20.364;2023-03-01T02:08:57;45.20;;;18.60;;
76117;SDS011;64851;50.232;20.364;2023-03-01T02:11:55;43.30;;;17.60;;
76117;SDS011;64851;50.232;20.364;2023-03-01T02:14:50;51.10;;;20.70;;
76117;SDS011;64851;50.232;20.364;2023-03-01T02:17:25;54.40;;;26.20;;
76117;SDS011;64851;50.232;20.364;2023-03-01T02:20:19;92.50;;;41.70;;
76117;SDS011;64851;50.232;20.364;2023-03-01T02:29:15;52.00;;;20.50;;
76117;SDS011;64851;50.232;20.364;2023-03-01T02:31:51;52.10;;;22.00;;
76117;SDS011;64851;50.232;20.364;2023-03-01T02:34:47;55.90;;;27.50;;
76117;SDS011;64851;50.232;20.364;2023-03-01T02:37:42;42.80;;;17.90;;
76117;SDS011;64851;50.232;20.364;2023-03-01T02:40:18;39.90;;;16.30;;
76117;SDS011;64851;50.232;20.364;2023-03-01T02:43:08;42.90;;;18.20;;
76117;SDS011;64851;50.232;20.364;2023-03-01T02:46:05;45.20;;;18.70;;
76117;SDS011;64851;50.232;20.364;2023-03-01T02:48:52;44.00;;;18.00;;
76117;SDS011;64851;50.232;20.364;2023-03-01T02:54:40;45.30;;;16.50;;
76117;SDS011;64851;50.232;20.364;2023-03-01T03:00:38;39.00;;;14.20;;
76117;SDS011;64851;50.232;20.364;2023-03-01T03:03:30;38.40;;;16.30;;
76117;SDS011;64851;50.232;20.364;2023-03-01T03:06:05;38.40;;;13.50;;
76117;SDS011;64851;50.232;20.364;2023-03-01T03:09:00;54.10;;;21.90;;
76117;SDS011;64851;50.232;20.364;2023-03-01T03:11:56;47.50;;;16.80;;
76117;SDS011;64851;50.232;20.364;2023-03-01T03:14:31;41.10;;;16.00;;
76117;SDS011;64851;50.232;20.364;2023-03-01T03:17:19;34.50;;;14.40;;
76117;SDS011;64851;50.232;20.364;2023-03-01T03:19:54;39.30;;;15.40;;
76117;SDS011;64851;50.232;20.364;2023-03-01T03:22:41;49.30;;;20.40;;
76117;SDS011;64851;50.232;20.364;2023-03-01T03:25:17;81.00;;;28.10;;
76117;SDS011;64851;50.232;20.364;2023-03-01T03:28:12;59.30;;;23.60;;
76117;SDS011;64851;50.232;20.364;2023-03-01T03:31:07;44.10;;;16.00;;
76117;SDS011;64851;50.232;20.364;2023-03-01T03:33:42;38.80;;;15.60;;
76117;SDS011;64851;50.232;20.364;2023-03-01T03:36:30;42.50;;;17.50;;
76117;SDS011;64851;50.232;20.364;2023-03-01T03:39:05;34.60;;;13.20;;
76117;SDS011;64851;50.232;20.364;2023-03-01T03:44:27;36.70;;;14.50;;
76117;SDS011;64851;50.232;20.364;2023-03-01T03:49:49;41.90;;;15.50;;
76117;SDS011;64851;50.232;20.364;2023-03-01T03:52:37;54.10;;;19.90;;
76117;SDS011;64851;50.232;20.364;2023-03-01T03:55:12;48.20;;;19.70;;
76117;SDS011;64851;50.232;20.364;2023-03-01T03:58:01;43.70;;;19.50;;
76117;SDS011;64851;50.232;20.364;2023-03-01T04:00:41;47.30;;;19.50;;
76117;SDS011;64851;50.232;20.364;2023-03-01T04:03:36;42.40;;;15.00;;
76117;SDS011;64851;50.232;20.364;2023-03-01T04:06:34;55.50;;;22.50;;
76117;SDS011;64851;50.232;20.364;2023-03-01T04:09:29;60.20;;;23.80;;
76117;SDS011;64851;50.232;20.364;2023-03-01T04:12:04;57.80;;;22.80;;
76117;SDS011;64851;50.232;20.364;2023-03-01T04:14:52;36.10;;;16.50;;
76117;SDS011;64851;50.232;20.364;2023-03-01T04:17:27;40.20;;;18.80;;
76117;SDS011;64851;50.232;20.364;2023-03-01T04:20:25;34.50;;;14.00;;
76117;SDS011;64851;50.232;20.364;2023-03-01T04:23:22;34.10;;;14.20;;
76117;SDS011;64851;50.232;20.364;2023-03-01T04:25:58;36.50;;;15.10;;
76117;SDS011;64851;50.232;20.364;2023-03-01T04:28:53;33.40;;;15.10;;
76117;SDS011;64851;50.232;20.364;2023-03-01T04:31:48;36.20;;;14.90;;
76117;SDS011;64851;50.232;20.364;2023-03-01T04:34:23;31.10;;;12.90;;
76117;SDS011;64851;50.232;20.364;2023-03-01T04:37:18;40.90;;;15.30;;
76117;SDS011;64851;50.232;20.364;2023-03-01T04:40:13;55.00;;;26.40;;
76117;SDS011;64851;50.232;20.364;2023-03-01T04:42:51;42.60;;;18.00;;
76117;SDS011;64851;50.232;20.364;2023-03-01T04:45:45;37.50;;;15.90;;
76117;SDS011;64851;50.232;20.364;2023-03-01T04:48:20;37.00;;;16.60;;
76117;SDS011;64851;50.232;20.364;2023-03-01T04:51:08;32.20;;;14.90;;
76117;SDS011;64851;50.232;20.364;2023-03-01T04:53:43;26.90;;;12.00;;
76117;SDS011;64851;50.232;20.364;2023-03-01T04:56:31;25.80;;;10.70;;
76117;SDS011;64851;50.232;20.364;2023-03-01T04:59:07;35.30;;;13.30;;
76117;SDS011;64851;50.232;20.364;2023-03-01T05:01:55;29.10;;;12.30;;
76117;SDS011;64851;50.232;20.364;2023-03-01T05:04:31;39.80;;;13.80;;
76117;SDS011;64851;50.232;20.364;2023-03-01T05:07:18;25.90;;;11.80;;
76117;SDS011;64851;50.232;20.364;2023-03-01T05:09:53;33.80;;;13.70;;
76117;SDS011;64851;50.232;20.364;2023-03-01T05:12:41;35.90;;;14.00;;
76117;SDS011;64851;50.232;20.364;2023-03-01T05:15:23;43.30;;;17.60;;
76117;SDS011;64851;50.232;20.364;2023-03-01T05:18:13;42.00;;;16.70;;
76117;SDS011;64851;50.232;20.364;2023-03-01T05:20:49;46.80;;;17.60;;
76117;SDS011;64851;50.232;20.364;2023-03-01T05:23:39;41.30;;;19.10;;
76117;SDS011;64851;50.232;20.364;2023-03-01T05:26:15;47.10;;;19.60;;
76117;SDS011;64851;50.232;20.364;2023-03-01T05:29:08;95.50;;;36.90;;
76117;SDS011;64851;50.232;20.364;2023-03-01T05:31:44;44.60;;;20.90;;
76117;SDS011;64851;50.232;20.364;2023-03-01T05:34:33;53.80;;;23.20;;
76117;SDS011;64851;50.232;20.364;2023-03-01T05:37:16;58.40;;;27.90;;
76117;SDS011;64851;50.232;20.364;2023-03-01T05:40:04;62.20;;;28.20;;
76117;SDS011;64851;50.232;20.364;2023-03-01T05:42:39;58.80;;;27.60;;
76117;SDS011;64851;50.232;20.364;2023-03-01T05:48:01;39.00;;;17.00;;
76117;SDS011;64851;50.232;20.364;2023-03-01T05:50:49;31.30;;;13.10;;
76117;SDS011;64851;50.232;20.364;2023-03-01T05:53:24;51.20;;;20.00;;
76117;SDS011;64851;50.232;20.364;2023-03-01T05:56:12;45.80;;;17.50;;
76117;SDS011;64851;50.232;20.364;2023-03-01T05:58:48;50.50;;;18.00;;
76117;SDS011;64851;50.232;20.364;2023-03-01T06:01:36;44.60;;;16.50;;
76117;SDS011;64851;50.232;20.364;2023-03-01T06:04:11;38.00;;;16.20;;
76117;SDS011;64851;50.232;20.364;2023-03-01T06:06:59;30.70;;;14.10;;
76117;SDS011;64851;50.232;20.364;2023-03-01T06:09:34;40.00;;;17.40;;
76117;SDS011;64851;50.232;20.364;2023-03-01T06:12:22;37.00;;;17.60;;
76117;SDS011;64851;50.232;20.364;2023-03-01T06:14:57;38.40;;;15.60;;
76117;SDS011;64851;50.232;20.364;2023-03-01T06:17:46;41.40;;;14.00;;
76117;SDS011;64851;50.232;20.364;2023-03-01T06:20:21;40.50;;;15.40;;
76117;SDS011;64851;50.232;20.364;2023-03-01T06:23:09;37.50;;;16.00;;
76117;SDS011;64851;50.232;20.364;2023-03-01T06:25:51;34.70;;;14.10;;
76117;SDS011;64851;50.232;20.364;2023-03-01T06:28:45;24.20;;;9.10;;
76117;SDS011;64851;50.232;20.364;2023-03-01T06:31:40;45.60;;;17.20;;
76117;SDS011;64851;50.232;20.364;2023-03-01T06:34:35;48.70;;;20.50;;
76117;SDS011;64851;50.232;20.364;2023-03-01T06:37:10;40.80;;;19.10;;
76117;SDS011;64851;50.232;20.364;2023-03-01T06:39:58;37.90;;;16.60;;
76117;SDS011;64851;50.232;20.364;2023-03-01T06:42:34;40.00;;;16.40;;
76117;SDS011;64851;50.232;20.364;2023-03-01T06:45:23;40.60;;;18.80;;
76117;SDS011;64851;50.232;20.364;2023-03-01T06:48:01;38.00;;;16.20;;
76117;SDS011;64851;50.232;20.364;2023-03-01T06:50:52;36.90;;;14.80;;
76117;SDS011;64851;50.232;20.364;2023-03-01T06:53:29;47.50;;;18.90;;
76117;SDS011;64851;50.232;20.364;2023-03-01T06:56:24;47.20;;;19.30;;
76117;SDS011;64851;50.232;20.364;2023-03-01T06:59:07;39.40;;;17.50;;
76117;SDS011;64851;50.232;20.364;2023-03-01T07:01:56;37.70;;;15.90;;
76117;SDS011;64851;50.232;20.364;2023-03-01T07:04:38;38.20;;;16.20;;
76117;SDS011;64851;50.232;20.364;2023-03-01T07:07:20;37.80;;;16.40;;
76117;SDS011;64851;50.232;20.364;2023-03-01T07:10:02;27.90;;;12.40;;
76117;SDS011;64851;50.232;20.364;2023-03-01T07:12:43;36.80;;;15.10;;
76117;SDS011;64851;50.232;20.364;2023-03-01T07:15:25;36.10;;;14.90;;
76117;SDS011;64851;50.232;20.364;2023-03-01T07:18:07;39.60;;;14.80;;
76117;SDS011;64851;50.232;20.364;2023-03-01T07:20:49;44.80;;;17.30;;
76117;SDS011;64851;50.232;20.364;2023-03-01T07:23:29;93.20;;;28.70;;
76117;SDS011;64851;50.232;20.364;2023-03-01T07:26:11;38.50;;;16.70;;
76117;SDS011;64851;50.232;20.364;2023-03-01T07:29:07;36.30;;;16.30;;
76117;SDS011;64851;50.232;20.364;2023-03-01T07:32:04;35.60;;;16.20;;
76117;SDS011;64851;50.232;20.364;2023-03-01T07:35:01;26.00;;;11.20;;
76117;SDS011;64851;50.232;20.364;2023-03-01T07:37:36;33.00;;;13.60;;
76117;SDS011;64851;50.232;20.364;2023-03-01T07:40:24;37.20;;;14.30;;
76117;SDS011;64851;50.232;20.364;2023-03-01T07:42:59;36.90;;;15.40;;
76117;SDS011;64851;50.232;20.364;2023-03-01T07:45:54;32.80;;;13.30;;
76117;SDS011;64851;50.232;20.364;2023-03-01T07:48:49;33.40;;;15.40;;
76117;SDS011;64851;50.232;20.364;2023-03-01T07:51:24;35.90;;;15.10;;
76117;SDS011;64851;50.232;20.364;2023-03-01T07:54:11;41.50;;;17.10;;
76117;SDS011;64851;50.232;20.364;2023-03-01T07:56:46;44.10;;;17.50;;
76117;SDS011;64851;50.232;20.364;2023-03-01T07:59:42;40.20;;;15.70;;
76117;SDS011;64851;50.232;20.364;2023-03-01T08:02:37;40.60;;;16.50;;
76117;SDS011;64851;50.232;20.364;2023-03-01T08:05:13;34.30;;;15.30;;
76117;SDS011;64851;50.232;20.364;2023-03-01T08:08:03;41.00;;;18.00;;
76117;SDS011;64851;50.232;20.364;2023-03-01T08:10:39;40.20;;;18.20;;
76117;SDS011;64851;50.232;20.364;2023-03-01T08:13:34;34.40;;;14.40;;
76117;SDS011;64851;50.232;20.364;2023-03-01T08:16:16;34.90;;;15.50;;
76117;SDS011;64851;50.232;20.364;2023-03-01T08:19:08;35.20;;;15.50;;
76117;SDS011;64851;50.232;20.364;2023-03-01T08:21:45;35.00;;;15.10;;
76117;SDS011;64851;50.232;20.364;2023-03-01T08:24:32;34.20;;;14.50;;
76117;SDS011;64851;50.232;20.364;2023-03-01T08:27:07;35.50;;;15.40;;
76117;SDS011;64851;50.232;20.364;2023-03-01T08:29:56;34.90;;;16.30;;
76117;SDS011;64851;50.232;20.364;2023-03-01T08:32:35;33.40;;;14.50;;
76117;SDS011;64851;50.232;20.364;2023-03-01T08:37:59;34.50;;;14.50;;
76117;SDS011;64851;50.232;20.364;2023-03-01T08:40:46;39.40;;;15.50;;
76117;SDS011;64851;50.232;20.364;2023-03-01T08:46:15;33.50;;;14.60;;
76117;SDS011;64851;50.232;20.364;2023-03-01T08:49:11;39.40;;;17.60;;
76117;SDS011;64851;50.232;20.364;2023-03-01T08:51:48;40.60;;;17.70;;
76117;SDS011;64851;50.232;20.364;2023-03-01T08:54:43;35.10;;;15.70;;
76117;SDS011;64851;50.232;20.364;2023-03-01T08:57:38;36.70;;;16.70;;
76117;SDS011;64851;50.232;20.364;2023-03-01T09:00:33;42.70;;;18.20;;
76117;SDS011;64851;50.232;20.364;2023-03-01T09:03:09;37.00;;;18.60;;
76117;SDS011;64851;50.232;20.364;2023-03-01T09:06:05;35.00;;;16.20;;
76117;SDS011;64851;50.232;20.364;2023-03-01T09:08:42;35.60;;;15.80;;
76117;SDS011;64851;50.232;20.364;2023-03-01T09:14:15;20.00;;;8.30;;
76117;SDS011;64851;50.232;20.364;2023-03-01T09:17:10;24.50;;;11.20;;
76117;SDS011;64851;50.232;20.364;2023-03-01T09:19:45;31.00;;;14.20;;
76117;SDS011;64851;50.232;20.364;2023-03-01T09:22:33;28.90;;;13.00;;
76117;SDS011;64851;50.232;20.364;2023-03-01T09:25:09;23.20;;;11.30;;
76117;SDS011;64851;50.232;20.364;2023-03-01T09:28:04;27.10;;;11.70;;
76117;SDS011;64851;50.232;20.364;2023-03-01T09:30:59;37.60;;;15.80;;
76117;SDS011;64851;50.232;20.364;2023-03-01T09:33:54;29.60;;;13.90;;
76117;SDS011;64851;50.232;20.364;2023-03-01T09:36:29;28.50;;;12.50;;
76117;SDS011;64851;50.232;20.364;2023-03-01T09:39:17;26.60;;;13.60;;
76117;SDS011;64851;50.232;20.364;2023-03-01T09:41:59;26.60;;;12.40;;
76117;SDS011;64851;50.232;20.364;2023-03-01T09:44:52;21.80;;;10.50;;
76117;SDS011;64851;50.232;20.364;2023-03-01T09:47:32;21.70;;;9.50;;
76117;SDS011;64851;50.232;20.364;2023-03-01T09:50:22;29.80;;;13.20;;
76117;SDS011;64851;50.232;20.364;2023-03-01T09:56:20;22.40;;;10.10;;
76117;SDS011;64851;50.232;20.364;2023-03-01T10:01:59;26.30;;;12.80;;
76117;SDS011;64851;50.232;20.364;2023-03-01T10:08:24;30.20;;;13.80;;
76117;SDS011;64851;50.232;20.364;2023-03-01T10:14:07;20.80;;;9.00;;
76117;SDS011;64851;50.232;20.364;2023-03-01T10:17:03;16.20;;;7.10;;
76117;SDS011;64851;50.232;20.364;2023-03-01T10:19:40;27.20;;;12.20;;
76117;SDS011;64851;50.232;20.364;2023-03-01T10:22:29;28.70;;;13.20;;
76117;SDS011;64851;50.232;20.364;2023-03-01T10:25:05;27.10;;;12.00;;
76117;SDS011;64851;50.232;20.364;2023-03-01T10:27:54;30.80;;;14.10;;
76117;SDS011;64851;50.232;20.364;2023-03-01T10:30:34;26.90;;;12.70;;
76117;SDS011;64851;50.232;20.364;2023-03-01T10:33:29;24.40;;;12.00;;
76117;SDS011;64851;50.232;20.364;2023-03-01T10:36:06;29.80;;;11.70;;
76117;SDS011;64851;50.232;20.364;2023-03-01T10:39:01;29.20;;;12.90;;
76117;SDS011;64851;50.232;20.364;2023-03-01T10:42:09;16.50;;;9.00;;
76117;SDS011;64851;50.232;20.364;2023-03-01T10:48:25;24.30;;;11.90;;
76117;SDS011;64851;50.232;20.364;2023-03-01T10:51:12;23.50;;;11.40;;
76117;SDS011;64851;50.232;20.364;2023-03-01T10:54:04;19.50;;;9.20;;
76117;SDS011;64851;50.232;20.364;2023-03-01T10:56:47;20.40;;;10.40;;
76117;SDS011;64851;50.232;20.364;2023-03-01T10:59:37;20.90;;;10.70;;
76117;SDS011;64851;50.232;20.364;2023-03-01T11:02:22;23.80;;;12.40;;
76117;SDS011;64851;50.232;20.364;2023-03-01T11:08:34;23.40;;;10.50;;
76117;SDS011;64851;50.232;20.364;2023-03-01T11:11:33;18.00;;;9.10;;
76117;SDS011;64851;50.232;20.364;2023-03-01T11:14:22;21.10;;;11.80;;
76117;SDS011;64851;50.232;20.364;2023-03-01T11:17:02;19.90;;;10.20;;
76117;SDS011;64851;50.232;20.364;2023-03-01T11:20:06;20.20;;;9.30;;
76117;SDS011;64851;50.232;20.364;2023-03-01T11:22:52;21.00;;;10.00;;
76117;SDS011;64851;50.232;20.364;2023-03-01T11:25:42;21.00;;;9.00;;
76117;SDS011;64851;50.232;20.364;2023-03-01T11:28:18;18.10;;;9.40;;
76117;SDS011;64851;50.232;20.364;2023-03-01T11:31:08;18.80;;;9.20;;
76117;SDS011;64851;50.232;20.364;2023-03-01T11:37:28;14.30;;;7.80;;
76117;SDS011;64851;50.232;20.364;2023-03-01T11:43:36;13.00;;;6.40;;
76117;SDS011;64851;50.232;20.364;2023-03-01T12:02:02;12.70;;;7.00;;
76117;SDS011;64851;50.232;20.364;2023-03-01T12:20:14;12.00;;;5.30;;
76117;SDS011;64851;50.232;20.364;2023-03-01T12:37:42;14.80;;;7.00;;
76117;SDS011;64851;50.232;20.364;2023-03-01T12:41:02;14.20;;;6.90;;
76117;SDS011;64851;50.232;20.364;2023-03-01T12:44:15;15.10;;;6.60;;
76117;SDS011;64851;50.232;20.364;2023-03-01T12:50:46;14.60;;;7.30;;
76117;SDS011;64851;50.232;20.364;2023-03-01T12:53:26;11.50;;;5.80;;
76117;SDS011;64851;50.232;20.364;2023-03-01T12:56:24;13.70;;;6.40;;
76117;SDS011;64851;50.232;20.364;2023-03-01T13:08:14;13.90;;;7.20;;
76117;SDS011;64851;50.232;20.364;2023-03-01T13:10:56;15.90;;;7.40;;
76117;SDS011;64851;50.232;20.364;2023-03-01T13:13:47;14.70;;;7.20;;
76117;SDS011;64851;50.232;20.364;2023-03-01T13:19:20;14.30;;;7.40;;
76117;SDS011;64851;50.232;20.364;2023-03-01T13:21:56;13.40;;;7.40;;
76117;SDS011;64851;50.232;20.364;2023-03-01T13:24:44;13.70;;;7.90;;
76117;SDS011;64851;50.232;20.364;2023-03-01T13:27:21;17.80;;;9.70;;
76117;SDS011;64851;50.232;20.364;2023-03-01T13:36:09;17.80;;;11.10;;
76117;SDS011;64851;50.232;20.364;2023-03-01T13:38:59;14.60;;;9.50;;
76117;SDS011;64851;50.232;20.364;2023-03-01T13:44:33;17.40;;;10.40;;
76117;SDS011;64851;50.232;20.364;2023-03-01T13:47:29;16.00;;;10.70;;
76117;SDS011;64851;50.232;20.364;2023-03-01T13:50:18;14.70;;;10.40;;
76117;SDS011;64851;50.232;20.364;2023-03-01T13:53:19;13.90;;;10.20;;
76117;SDS011;64851;50.232;20.364;2023-03-01T13:56:01;15.10;;;11.00;;
76117;SDS011;64851;50.232;20.364;2023-03-01T13:58:54;12.40;;;9.20;;
76117;SDS011;64851;50.232;20.364;2023-03-01T14:02:11;14.40;;;10.70;;
76117;SDS011;64851;50.232;20.364;2023-03-01T14:05:08;15.50;;;11.20;;
76117;SDS011;64851;50.232;20.364;2023-03-01T14:07:50;16.40;;;12.70;;
76117;SDS011;64851;50.232;20.364;2023-03-01T14:10:47;14.20;;;11.60;;
76117;SDS011;64851;50.232;20.364;2023-03-01T14:14:08;15.80;;;11.70;;
76117;SDS011;64851;50.232;20.364;2023-03-01T14:17:00;16.10;;;11.80;;
76117;SDS011;64851;50.232;20.364;2023-03-01T14:20:00;14.90;;;12.00;;
76117;SDS011;64851;50.232;20.364;2023-03-01T14:23:01;12.60;;;9.40;;
76117;SDS011;64851;50.232;20.364;2023-03-01T14:25:37;16.80;;;13.80;;
76117;SDS011;64851;50.232;20.364;2023-03-01T14:28:32;18.40;;;12.80;;
76117;SDS011;64851;50.232;20.364;2023-03-01T14:31:38;18.00;;;14.30;;
76117;SDS011;64851;50.232;20.364;2023-03-01T14:34:27;17.10;;;14.20;;
76117;SDS011;64851;50.232;20.364;2023-03-01T14:39:52;15.20;;;11.30;;
76117;SDS011;64851;50.232;20.364;2023-03-01T14:42:40;17.30;;;11.90;;
76117;SDS011;64851;50.232;20.364;2023-03-01T14:45:29;16.20;;;10.70;;
76117;SDS011;64851;50.232;20.364;2023-03-01T14:48:24;16.20;;;10.20;;
76117;SDS011;64851;50.232;20.364;2023-03-01T14:51:21;17.40;;;9.50;;
76117;SDS011;64851;50.232;20.364;2023-03-01T14:53:56;16.90;;;10.20;;
76117;SDS011;64851;50.232;20.364;2023-03-01T14:56:51;13.50;;;8.60;;
76117;SDS011;64851;50.232;20.364;2023-03-01T14:59:27;19.70;;;13.30;;
76117;SDS011;64851;50.232;20.364;2023-03-01T15:02:16;16.70;;;10.30;;
76117;SDS011;64851;50.232;20.364;2023-03-01T15:04:57;14.70;;;8.00;;
76117;SDS011;64851;50.232;20.364;2023-03-01T15:07:49;18.30;;;9.40;;
76117;SDS011;64851;50.232;20.364;2023-03-01T15:10:26;23.40;;;11.20;;
76117;SDS011;64851;50.232;20.364;2023-03-01T15:13:23;13.30;;;7.50;;
76117;SDS011;64851;50.232;20.364;2023-03-01T15:16:16;19.30;;;11.90;;
76117;SDS011;64851;50.232;20.364;2023-03-01T15:19:15;21.00;;;9.70;;
76117;SDS011;64851;50.232;20.364;2023-03-01T15:21:53;16.00;;;8.80;;
76117;SDS011;64851;50.232;20.364;2023-03-01T15:24:52;18.60;;;9.60;;
76117;SDS011;64851;50.232;20.364;2023-03-01T15:27:35;22.20;;;10.10;;
76117;SDS011;64851;50.232;20.364;2023-03-01T15:30:21;17.30;;;8.30;;
76117;SDS011;64851;50.232;20.364;2023-03-01T15:33:19;15.20;;;8.00;;
76117;SDS011;64851;50.232;20.364;2023-03-01T15:48:17;19.30;;;8.10;;
76117;SDS011;64851;50.232;20.364;2023-03-01T15:50:55;24.50;;;9.90;;
76117;SDS011;64851;50.232;20.364;2023-03-01T15:53:51;16.80;;;7.50;;
76117;SDS011;64851;50.232;20.364;2023-03-01T15:56:47;26.50;;;10.70;;
76117;SDS011;64851;50.232;20.364;2023-03-01T15:59:22;22.20;;;8.90;;
76117;SDS011;64851;50.232;20.364;2023-03-01T16:02:10;17.00;;;8.60;;
76117;SDS011;64851;50.232;20.364;2023-03-01T16:04:46;16.70;;;7.70;;
76117;SDS011;64851;50.232;20.364;2023-03-01T16:07:42;16.10;;;8.10;;
76117;SDS011;64851;50.232;20.364;2023-03-01T16:10:17;17.00;;;7.50;;
76117;SDS011;64851;50.232;20.364;2023-03-01T16:13:05;18.00;;;7.90;;
76117;SDS011;64851;50.232;20.364;2023-03-01T16:15:40;15.90;;;7.40;;
76117;SDS011;64851;50.232;20.364;2023-03-01T16:18:35;17.00;;;7.30;;
76117;SDS011;64851;50.232;20.364;2023-03-01T16:21:30;15.90;;;6.80;;
76117;SDS011;64851;50.232;20.364;2023-03-01T16:24:08;25.10;;;11.30;;
76117;SDS011;64851;50.232;20.364;2023-03-01T16:27:04;24.70;;;11.50;;
76117;SDS011;64851;50.232;20.364;2023-03-01T16:29:43;31.90;;;11.80;;
76117;SDS011;64851;50.232;20.364;2023-03-01T16:32:39;32.00;;;13.70;;
76117;SDS011;64851;50.232;20.364;2023-03-01T16:35:38;27.90;;;12.30;;
76117;SDS011;64851;50.232;20.364;2023-03-01T16:38:18;25.90;;;11.60;;
76117;SDS011;64851;50.232;20.364;2023-03-01T16:41:15;22.40;;;10.20;;
76117;SDS011;64851;50.232;20.364;2023-03-01T16:43:51;24.40;;;9.80;;
76117;SDS011;64851;50.232;20.364;2023-03-01T16:46:39;22.60;;;10.40;;
76117;SDS011;64851;50.232;20.364;2023-03-01T16:49:17;31.60;;;11.80;;
76117;SDS011;64851;50.232;20.364;2023-03-01T16:52:05;28.30;;;11.70;;
76117;SDS011;64851;50.232;20.364;2023-03-01T16:54:40;24.70;;;9.50;;
76117;SDS011;64851;50.232;20.364;2023-03-01T16:57:28;27.00;;;11.70;;
76117;SDS011;64851;50.232;20.364;2023-03-01T17:00:05;34.00;;;13.70;;
76117;SDS011;64851;50.232;20.364;2023-03-01T17:02:54;31.50;;;13.90;;
76117;SDS011;64851;50.232;20.364;2023-03-01T17:05:30;35.20;;;13.00;;
76117;SDS011;64851;50.232;20.364;2023-03-01T17:08:25;31.90;;;11.60;;
76117;SDS011;64851;50.232;20.364;2023-03-01T17:11:21;32.10;;;13.80;;
76117;SDS011;64851;50.232;20.364;2023-03-01T17:13:57;46.90;;;17.20;;
76117;SDS011;64851;50.232;20.364;2023-03-01T17:16:45;38.90;;;16.90;;
76117;SDS011;64851;50.232;20.364;2023-03-01T17:19:20;41.50;;;17.50;;
76117;SDS011;64851;50.232;20.364;2023-03-01T17:22:09;43.00;;;16.70;;
76117;SDS011;64851;50.232;20.364;2023-03-01T17:24:52;33.50;;;14.40;;
76117;SDS011;64851;50.232;20.364;2023-03-01T17:27:32;37.80;;;17.20;;
76117;SDS011;64851;50.232;20.364;2023-03-01T17:30:17;43.20;;;18.70;;
76117;SDS011;64851;50.232;20.364;2023-03-01T17:33:06;36.40;;;15.50;;
76117;SDS011;64851;50.232;20.364;2023-03-01T17:35:42;34.30;;;14.90;;
76117;SDS011;64851;50.232;20.364;2023-03-01T17:38:29;33.60;;;15.00;;
76117;SDS011;64851;50.232;20.364;2023-03-01T17:41:10;38.90;;;15.50;;
76117;SDS011;64851;50.232;20.364;2023-03-01T17:43:52;42.00;;;14.20;;
76117;SDS011;64851;50.232;20.364;2023-03-01T17:46:40;40.80;;;17.70;;
76117;SDS011;64851;50.232;20.364;2023-03-01T17:49:35;44.10;;;17.00;;
76117;SDS011;64851;50.232;20.364;2023-03-01T17:52:11;35.00;;;14.30;;
76117;SDS011;64851;50.232;20.364;2023-03-01T17:55:03;41.40;;;16.30;;
76117;SDS011;64851;50.232;20.364;2023-03-01T17:57:39;43.30;;;16.10;;
76117;SDS011;64851;50.232;20.364;2023-03-01T18:00:30;33.70;;;13.20;;
76117;SDS011;64851;50.232;20.364;2023-03-01T18:03:05;43.10;;;15.00;;
76117;SDS011;64851;50.232;20.364;2023-03-01T18:05:53;38.10;;;14.10;;
76117;SDS011;64851;50.232;20.364;2023-03-01T18:08:28;42.30;;;14.80;;
76117;SDS011;64851;50.232;20.364;2023-03-01T18:11:17;45.50;;;16.10;;
76117;SDS011;64851;50.232;20.364;2023-03-01T18:13:52;38.80;;;12.30;;
76117;SDS011;64851;50.232;20.364;2023-03-01T18:16:49;52.30;;;19.10;;
76117;SDS011;64851;50.232;20.364;2023-03-01T18:19:45;38.90;;;15.90;;
76117;SDS011;64851;50.232;20.364;2023-03-01T18:22:20;36.70;;;16.60;;
76117;SDS011;64851;50.232;20.364;2023-03-01T18:25:12;34.60;;;14.30;;